createdAt,value
2016-09-06T00:00:32.776Z,99.99
2016-09-06T00:01:32.767Z,99.99
2016-09-06T00:02:32.758Z,99.99
2016-09-06T00:03:32.751Z,99.99
2016-09-06T00:04:32.738Z,99.99
2016-09-06T00:05:32.726Z,99.99
2016-09-06T00:06:32.720Z,99.99
2016-09-06T00:07:32.710Z,99.99
2016-09-06T00:08:32.704Z,99.99
2016-09-06T00:09:32.689Z,99.99
2016-09-06T00:10:32.681Z,99.99
2016-09-06T00:11:32.668Z,99.99
2016-09-06T00:12:32.664Z,99.99
2016-09-06T00:13:32.852Z,99.99
2016-09-06T00:14:32.646Z,99.99
2016-09-06T00:15:32.630Z,99.99
2016-09-06T00:16:32.625Z,99.99
2016-09-06T00:17:32.935Z,99.99
2016-09-06T00:18:32.605Z,99.99
2016-09-06T00:19:32.594Z,99.99
2016-09-06T00:20:32.585Z,99.99
2016-09-06T00:21:32.573Z,99.99
2016-09-06T00:22:32.565Z,99.99
2016-09-06T00:23:32.555Z,99.99
2016-09-06T00:24:32.548Z,99.99
2016-09-06T00:25:32.535Z,99.99
2016-09-06T00:26:32.525Z,99.99
2016-09-06T00:27:32.515Z,99.99
2016-09-06T00:28:32.519Z,99.99
2016-09-06T00:29:32.499Z,99.99
2016-09-06T00:30:32.487Z,99.99
2016-09-06T00:31:32.478Z,99.99
2016-09-06T00:32:32.468Z,99.99
2016-09-06T00:33:32.459Z,99.99
2016-09-06T00:34:32.448Z,99.99
2016-09-06T00:35:32.439Z,99.99
2016-09-06T00:36:32.744Z,99.99
2016-09-06T00:37:32.423Z,99.99
2016-09-06T00:38:32.410Z,99.99
2016-09-06T00:39:32.401Z,99.99
2016-09-06T00:40:32.394Z,99.99
2016-09-06T00:41:32.383Z,99.99
2016-09-06T00:42:32.373Z,99.99
2016-09-06T00:43:32.364Z,99.99
2016-09-06T00:44:32.352Z,99.99
2016-09-06T00:45:32.343Z,99.99
2016-09-06T00:46:32.667Z,99.99
2016-09-06T00:47:32.324Z,99.99
2016-09-06T00:48:32.368Z,99.99
2016-09-06T00:49:32.303Z,99.99
2016-09-06T00:50:32.294Z,99.99
2016-09-06T00:51:32.602Z,99.99
2016-09-06T00:52:32.584Z,99.99
2016-09-06T00:53:32.264Z,99.99
2016-09-06T00:54:32.260Z,99.99
2016-09-06T00:55:32.241Z,99.99
2016-09-06T00:56:32.234Z,99.99
2016-09-06T00:57:32.229Z,99.99
2016-09-06T00:58:32.215Z,99.99
2016-09-06T00:59:32.204Z,99.99
2016-09-06T01:00:32.510Z,99.99
2016-09-06T01:01:32.191Z,99.99
2016-09-06T01:02:32.174Z,99.99
2016-09-06T01:03:32.164Z,99.99
2016-09-06T01:04:32.154Z,99.99
2016-09-06T01:05:32.145Z,99.99
2016-09-06T01:06:32.134Z,99.99
2016-09-06T01:07:32.130Z,99.99
2016-09-06T01:08:32.112Z,99.99
2016-09-06T01:09:32.107Z,99.99
2016-09-06T01:10:32.095Z,99.99
2016-09-06T01:11:32.090Z,99.99
2016-09-06T01:12:32.078Z,99.99
2016-09-06T01:13:32.065Z,99.99
2016-09-06T01:14:32.054Z,99.99
2016-09-06T01:15:32.046Z,99.99
2016-09-06T01:16:32.041Z,99.99
2016-09-06T01:17:32.026Z,99.99
2016-09-06T01:18:32.014Z,99.99
2016-09-06T01:19:32.008Z,99.99
2016-09-06T01:20:31.995Z,99.99
2016-09-06T01:21:32.000Z,99.99
2016-09-06T01:22:31.975Z,99.99
2016-09-06T01:23:31.967Z,99.99
2016-09-06T01:24:31.956Z,99.99
2016-09-06T01:25:31.947Z,99.99
2016-09-06T01:26:31.934Z,99.99
2016-09-06T01:27:31.927Z,99.99
2016-09-06T01:28:31.917Z,99.99
2016-09-06T01:29:31.903Z,99.99
2016-09-06T01:30:31.919Z,99.99
2016-09-06T01:31:31.891Z,99.99
2016-09-06T01:32:31.876Z,99.99
2016-09-06T01:33:31.864Z,99.99
2016-09-06T01:34:31.857Z,99.99
2016-09-06T01:35:31.845Z,99.99
2016-09-06T01:36:32.151Z,99.99
2016-09-06T01:37:31.825Z,99.99
2016-09-06T01:38:31.818Z,99.99
2016-09-06T01:39:31.803Z,99.99
2016-09-06T01:40:31.800Z,99.99
2016-09-06T01:41:31.785Z,99.99
2016-09-06T01:42:32.103Z,99.99
2016-09-06T01:43:31.764Z,99.99
2016-09-06T01:44:31.757Z,99.99
2016-09-06T01:45:31.745Z,99.99
2016-09-06T01:46:31.741Z,99.99
2016-09-06T01:47:31.721Z,99.99
2016-09-06T01:48:31.716Z,99.99
2016-09-06T01:49:31.705Z,99.99
2016-09-06T01:50:32.008Z,99.99
2016-09-06T01:51:31.683Z,99.99
2016-09-06T01:52:31.683Z,99.99
2016-09-06T01:53:31.666Z,99.99
2016-09-06T01:54:31.968Z,99.99
2016-09-06T01:55:31.646Z,99.99
2016-09-06T01:56:31.635Z,99.99
2016-09-06T01:57:31.624Z,99.99
2016-09-06T01:58:31.615Z,99.99
2016-09-06T01:59:31.605Z,99.99
2016-09-06T02:00:31.594Z,99.99
2016-09-06T02:01:31.599Z,99.99
2016-09-06T02:02:31.573Z,99.99
2016-09-06T02:03:31.563Z,99.99
2016-09-06T02:04:31.553Z,99.99
2016-09-06T02:05:31.542Z,99.99
2016-09-06T02:06:31.530Z,99.99
2016-09-06T02:07:31.839Z,99.99
2016-09-06T02:08:31.511Z,99.99
2016-09-06T02:09:31.502Z,99.99
2016-09-06T02:10:31.497Z,99.99
2016-09-06T02:11:31.483Z,99.99
2016-09-06T02:12:31.474Z,99.99
2016-09-06T02:13:31.663Z,99.99
2016-09-06T02:14:31.448Z,99.99
2016-09-06T02:15:31.444Z,99.99
2016-09-06T02:16:31.430Z,99.99
2016-09-06T02:17:31.423Z,99.99
2016-09-06T02:18:31.410Z,99.99
2016-09-06T02:19:31.401Z,99.99
2016-09-06T02:20:31.388Z,99.99
2016-09-06T02:21:31.380Z,99.99
2016-09-06T02:22:31.370Z,99.99
2016-09-06T02:23:31.359Z,99.99
2016-09-06T02:24:31.661Z,99.99
2016-09-06T02:25:31.341Z,99.99
2016-09-06T02:26:31.328Z,99.99
2016-09-06T02:27:31.321Z,99.99
2016-09-06T02:28:31.305Z,99.99
2016-09-06T02:29:31.299Z,99.99
2016-09-06T02:30:31.295Z,99.99
2016-09-06T02:31:31.594Z,99.99
2016-09-06T02:32:31.263Z,99.99
2016-09-06T02:33:31.259Z,99.99
2016-09-06T02:34:31.244Z,99.99
2016-09-06T02:35:31.234Z,99.99
2016-09-06T02:36:31.538Z,99.99
2016-09-06T02:37:31.215Z,99.99
2016-09-06T02:38:31.205Z,99.99
2016-09-06T02:39:31.508Z,99.99
2016-09-06T02:40:31.189Z,99.99
2016-09-06T02:41:31.179Z,99.99
2016-09-06T02:42:31.165Z,99.99
2016-09-06T02:43:31.157Z,99.99
2016-09-06T02:44:31.143Z,99.99
2016-09-06T02:45:31.137Z,99.99
2016-09-06T02:46:31.123Z,99.99
2016-09-06T02:47:31.114Z,99.99
2016-09-06T02:48:31.111Z,99.99
2016-09-06T02:49:31.454Z,99.99
2016-09-06T02:50:31.088Z,99.99
2016-09-06T02:51:31.083Z,99.99
2016-09-06T02:52:31.061Z,99.99
2016-09-06T02:53:31.054Z,99.99
2016-09-06T02:54:31.040Z,99.99
2016-09-06T02:55:31.031Z,99.99
2016-09-06T02:56:31.331Z,99.99
2016-09-06T02:57:31.009Z,99.99
2016-09-06T02:58:31.313Z,99.99
2016-09-06T02:59:31.304Z,99.99
2016-09-06T03:00:30.999Z,99.99
2016-09-06T03:01:30.972Z,99.99
2016-09-06T03:02:30.959Z,99.99
2016-09-06T03:03:31.261Z,99.99
2016-09-06T03:04:31.252Z,99.99
2016-09-06T03:05:30.931Z,99.99
2016-09-06T03:06:30.927Z,99.99
2016-09-06T03:07:30.908Z,99.99
2016-09-06T03:08:30.895Z,99.99
2016-09-06T03:09:30.887Z,99.99
2016-09-06T03:10:30.871Z,99.99
2016-09-06T03:11:30.863Z,99.99
2016-09-06T03:12:30.850Z,99.99
2016-09-06T03:13:30.844Z,99.99
2016-09-06T03:14:30.831Z,99.99
2016-09-06T03:15:30.823Z,99.99
2016-09-06T03:16:30.810Z,99.99
2016-09-06T03:17:30.802Z,99.99
2016-09-06T03:18:30.788Z,99.99
2016-09-06T03:19:30.785Z,99.99
2016-09-06T03:20:30.775Z,99.99
2016-09-06T03:21:30.757Z,99.99
2016-09-06T03:22:30.747Z,99.99
2016-09-06T03:23:30.737Z,99.99
2016-09-06T03:24:30.729Z,99.99
2016-09-06T03:25:30.716Z,99.99
2016-09-06T03:26:30.707Z,99.99
2016-09-06T03:27:30.696Z,99.99
2016-09-06T03:28:30.685Z,99.99
2016-09-06T03:29:30.989Z,99.99
2016-09-06T03:30:30.665Z,99.99
2016-09-06T03:31:30.666Z,99.99
2016-09-06T03:32:30.643Z,99.99
2016-09-06T03:33:30.635Z,99.99
2016-09-06T03:34:30.621Z,99.99
2016-09-06T03:35:30.924Z,99.99
2016-09-06T03:36:30.600Z,99.99
2016-09-06T03:37:30.589Z,99.99
2016-09-06T03:38:30.581Z,99.99
2016-09-06T03:39:30.574Z,99.99
2016-09-06T03:40:30.560Z,99.99
2016-09-06T03:41:30.547Z,99.99
2016-09-06T03:42:30.535Z,99.99
2016-09-06T03:43:30.529Z,99.99
2016-09-06T03:44:30.520Z,99.99
2016-09-06T03:45:30.817Z,99.99
2016-09-06T03:46:30.494Z,99.99
2016-09-06T03:47:30.482Z,99.99
2016-09-06T03:48:30.473Z,99.99
2016-09-06T03:49:30.463Z,99.99
2016-09-06T03:50:30.791Z,99.99
2016-09-06T03:51:30.780Z,99.99
2016-09-06T03:52:30.442Z,99.99
2016-09-06T03:53:30.426Z,99.99
2016-09-06T03:54:30.417Z,99.99
2016-09-06T03:55:30.398Z,99.99
2016-09-06T03:56:30.716Z,99.99
2016-09-06T03:57:30.379Z,99.99
2016-09-06T03:58:30.365Z,99.99
2016-09-06T03:59:30.355Z,99.99
2016-09-06T04:00:30.662Z,99.99
2016-09-06T04:01:30.647Z,99.99
2016-09-06T04:02:30.324Z,99.99
2016-09-06T04:03:30.312Z,99.99
2016-09-06T04:04:30.302Z,99.99
2016-09-06T04:05:30.291Z,99.99
2016-09-06T04:06:30.284Z,99.99
2016-09-06T04:07:30.268Z,99.99
2016-09-06T04:08:30.261Z,99.99
2016-09-06T04:09:30.255Z,99.99
2016-09-06T04:10:30.243Z,99.99
2016-09-06T04:11:30.229Z,99.99
2016-09-06T04:12:30.531Z,99.99
2016-09-06T04:13:30.416Z,99.99
2016-09-06T04:14:30.199Z,99.99
2016-09-06T04:15:30.191Z,99.99
2016-09-06T04:16:30.172Z,99.99
2016-09-06T04:17:30.166Z,99.99
2016-09-06T04:18:30.157Z,99.99
2016-09-06T04:19:30.145Z,99.99
2016-09-06T04:20:30.133Z,99.99
2016-09-06T04:21:30.120Z,99.99
2016-09-06T04:22:30.111Z,99.99
2016-09-06T04:23:30.100Z,99.99
2016-09-06T04:24:30.094Z,99.99
2016-09-06T04:25:30.089Z,99.99
2016-09-06T04:26:30.069Z,99.99
2016-09-06T04:27:30.368Z,99.99
2016-09-06T04:28:30.050Z,99.99
2016-09-06T04:29:30.037Z,99.99
2016-09-06T04:30:30.024Z,99.99
2016-09-06T04:31:30.011Z,99.99
2016-09-06T04:32:30.004Z,99.99
2016-09-06T04:33:29.995Z,99.99
2016-09-06T04:34:29.982Z,99.99
2016-09-06T04:35:29.970Z,99.99
2016-09-06T04:36:29.960Z,99.99
2016-09-06T04:37:29.950Z,99.99
2016-09-06T04:38:29.937Z,99.99
2016-09-06T04:39:29.931Z,99.99
2016-09-06T04:40:29.918Z,99.99
2016-09-06T04:41:29.905Z,99.99
2016-09-06T04:42:29.894Z,99.99
2016-09-06T04:43:29.885Z,99.99
2016-09-06T04:44:29.874Z,99.99
2016-09-06T04:45:29.866Z,99.99
2016-09-06T04:46:29.851Z,99.99
2016-09-06T04:47:29.847Z,99.99
2016-09-06T04:48:29.829Z,99.99
2016-09-06T04:49:29.818Z,99.99
2016-09-06T04:50:29.809Z,99.99
2016-09-06T04:51:29.803Z,99.99
2016-09-06T04:52:29.790Z,99.99
2016-09-06T04:53:29.791Z,99.99
2016-09-06T04:54:30.077Z,99.99
2016-09-06T04:55:29.769Z,99.99
2016-09-06T04:56:29.746Z,99.99
2016-09-06T04:57:29.733Z,99.99
2016-09-06T04:58:29.722Z,99.99
2016-09-06T04:59:29.715Z,99.99
2016-09-06T05:00:29.700Z,99.99
2016-09-06T05:01:29.691Z,99.99
2016-09-06T05:02:29.679Z,99.99
2016-09-06T05:03:29.669Z,99.99
2016-09-06T05:04:29.657Z,99.99
2016-09-06T05:05:29.648Z,99.99
2016-09-06T05:06:29.952Z,99.99
2016-09-06T05:07:29.627Z,99.99
2016-09-06T05:08:29.615Z,99.99
2016-09-06T05:09:29.604Z,99.99
2016-09-06T05:10:29.594Z,99.99
2016-09-06T05:11:29.583Z,99.99
2016-09-06T05:12:29.570Z,99.99
2016-09-06T05:13:29.563Z,99.99
2016-09-06T05:14:29.554Z,99.99
2016-09-06T05:15:29.537Z,99.99
2016-09-06T05:16:29.843Z,99.99
2016-09-06T05:17:29.516Z,99.99
2016-09-06T05:18:29.509Z,99.99
2016-09-06T05:19:29.809Z,99.99
2016-09-06T05:20:29.484Z,99.99
2016-09-06T05:21:29.787Z,99.99
2016-09-06T05:22:29.465Z,99.99
2016-09-06T05:23:29.453Z,99.99
2016-09-06T05:24:29.443Z,99.99
2016-09-06T05:25:29.433Z,99.99
2016-09-06T05:26:29.429Z,99.99
2016-09-06T05:27:29.412Z,99.99
2016-09-06T05:28:29.399Z,99.99
2016-09-06T05:29:29.391Z,99.99
2016-09-06T05:30:29.376Z,99.99
2016-09-06T05:31:29.367Z,99.99
2016-09-06T05:32:29.669Z,99.99
2016-09-06T05:33:29.660Z,99.99
2016-09-06T05:34:29.335Z,99.99
2016-09-06T05:35:29.324Z,99.99
2016-09-06T05:36:29.312Z,99.99
2016-09-06T05:37:29.302Z,99.99
2016-09-06T05:38:29.605Z,99.99
2016-09-06T05:39:29.280Z,99.99
2016-09-06T05:40:29.588Z,99.99
2016-09-06T05:41:29.265Z,99.99
2016-09-06T05:42:29.248Z,99.99
2016-09-06T05:43:29.238Z,99.99
2016-09-06T05:44:29.234Z,99.99
2016-09-06T05:45:29.216Z,99.99
2016-09-06T05:46:29.208Z,99.99
2016-09-06T05:47:29.195Z,99.99
2016-09-06T05:48:29.183Z,99.99
2016-09-06T05:49:29.174Z,99.99
2016-09-06T05:50:29.163Z,99.99
2016-09-06T05:51:29.153Z,99.99
2016-09-06T05:52:29.141Z,99.99
2016-09-06T05:53:29.133Z,99.99
2016-09-06T05:54:29.446Z,99.99
2016-09-06T05:55:29.122Z,99.99
2016-09-06T05:56:29.419Z,99.99
2016-09-06T05:57:29.089Z,99.99
2016-09-06T05:58:29.391Z,99.99
2016-09-06T05:59:29.381Z,99.99
2016-09-06T06:00:29.059Z,99.99
2016-09-06T06:01:29.047Z,99.99
2016-09-06T06:02:29.356Z,99.99
2016-09-06T06:03:29.022Z,99.99
2016-09-06T06:04:29.016Z,99.99
2016-09-06T06:05:29.007Z,99.99
2016-09-06T06:06:28.995Z,99.99
2016-09-06T06:07:28.987Z,99.99
2016-09-06T06:08:28.985Z,99.99
2016-09-06T06:09:28.962Z,99.99
2016-09-06T06:10:29.266Z,99.99
2016-09-06T06:11:28.943Z,99.99
2016-09-06T06:12:28.935Z,99.99
2016-09-06T06:13:29.123Z,99.99
2016-09-06T06:14:28.912Z,99.99
2016-09-06T06:15:28.900Z,99.99
2016-09-06T06:16:28.900Z,99.99
2016-09-06T06:17:28.880Z,99.99
2016-09-06T06:18:28.869Z,99.99
2016-09-06T06:19:28.861Z,99.99
2016-09-06T06:20:29.165Z,99.99
2016-09-06T06:21:28.836Z,99.99
2016-09-06T06:22:28.832Z,99.99
2016-09-06T06:23:28.819Z,99.99
2016-09-06T06:24:29.121Z,99.99
2016-09-06T06:25:28.796Z,99.99
2016-09-06T06:26:28.785Z,99.99
2016-09-06T06:27:28.778Z,99.99
2016-09-06T06:28:28.786Z,99.99
2016-09-06T06:29:28.756Z,99.99
2016-09-06T06:30:28.748Z,99.99
2016-09-06T06:31:29.055Z,99.99
2016-09-06T06:32:28.732Z,99.99
2016-09-06T06:33:28.716Z,99.99
2016-09-06T06:34:28.709Z,99.99
2016-09-06T06:35:28.693Z,99.99
2016-09-06T06:36:28.686Z,99.99
2016-09-06T06:37:28.675Z,99.99
2016-09-06T06:38:28.668Z,99.99
2016-09-06T06:39:28.654Z,99.99
2016-09-06T06:40:28.649Z,99.99
2016-09-06T06:41:28.635Z,99.99
2016-09-06T06:42:28.626Z,99.99
2016-09-06T06:43:28.615Z,99.99
2016-09-06T06:44:28.618Z,99.99
2016-09-06T06:45:28.598Z,99.99
2016-09-06T06:46:28.586Z,99.99
2016-09-06T06:47:28.574Z,99.99
2016-09-06T06:48:28.570Z,99.99
2016-09-06T06:49:28.607Z,99.99
2016-09-06T06:50:28.548Z,99.99
2016-09-06T06:51:28.850Z,99.99
2016-09-06T06:52:28.530Z,99.99
2016-09-06T06:53:28.521Z,99.99
2016-09-06T06:54:28.507Z,99.99
2016-09-06T06:55:28.812Z,99.99
2016-09-06T06:56:28.801Z,99.99
2016-09-06T06:57:28.793Z,99.99
2016-09-06T06:58:28.468Z,99.99
2016-09-06T06:59:28.462Z,99.99
2016-09-06T07:00:28.775Z,99.99
2016-09-06T07:01:28.442Z,99.99
2016-09-06T07:02:28.432Z,99.99
2016-09-06T07:03:28.418Z,99.99
2016-09-06T07:04:28.412Z,99.99
2016-09-06T07:05:28.410Z,99.99
2016-09-06T07:06:28.389Z,99.99
2016-09-06T07:07:28.383Z,99.99
2016-09-06T07:08:28.686Z,99.99
2016-09-06T07:09:28.363Z,99.99
2016-09-06T07:10:28.353Z,99.99
2016-09-06T07:11:28.342Z,99.99
2016-09-06T07:12:28.334Z,99.99
2016-09-06T07:13:28.325Z,99.99
2016-09-06T07:14:28.311Z,99.99
2016-09-06T07:15:28.304Z,99.99
2016-09-06T07:16:28.294Z,99.99
2016-09-06T07:17:28.285Z,99.99
2016-09-06T07:18:28.275Z,99.99
2016-09-06T07:19:28.578Z,99.99
2016-09-06T07:20:28.259Z,99.99
2016-09-06T07:21:28.249Z,99.99
2016-09-06T07:22:28.239Z,99.99
2016-09-06T07:23:28.230Z,99.99
2016-09-06T07:24:28.216Z,99.99
2016-09-06T07:25:28.223Z,99.99
2016-09-06T07:26:28.519Z,99.99
2016-09-06T07:27:28.195Z,99.99
2016-09-06T07:28:28.184Z,99.99
2016-09-06T07:29:28.180Z,99.99
2016-09-06T07:30:28.165Z,99.99
2016-09-06T07:31:28.160Z,99.99
2016-09-06T07:32:28.148Z,99.99
2016-09-06T07:33:28.139Z,99.99
2016-09-06T07:34:28.128Z,99.99
2016-09-06T07:35:28.119Z,99.99
2016-09-06T07:36:28.111Z,99.99
2016-09-06T07:37:28.099Z,99.99
2016-09-06T07:38:28.093Z,99.99
2016-09-06T07:39:28.090Z,99.99
2016-09-06T07:40:28.072Z,99.99
2016-09-06T07:41:28.066Z,99.99
2016-09-06T07:42:28.053Z,99.99
2016-09-06T07:43:28.047Z,99.99
2016-09-06T07:44:28.040Z,99.99
2016-09-06T07:45:28.029Z,99.99
2016-09-06T07:46:28.334Z,99.99
2016-09-06T07:47:28.013Z,99.99
2016-09-06T07:48:28.004Z,99.99
2016-09-06T07:49:27.995Z,99.99
2016-09-06T07:50:27.989Z,99.99
2016-09-06T07:51:27.995Z,99.99
2016-09-06T07:52:27.967Z,99.99
2016-09-06T07:53:27.958Z,99.99
2016-09-06T07:54:27.952Z,99.99
2016-09-06T07:55:27.945Z,99.99
2016-09-06T07:56:27.933Z,99.99
2016-09-06T07:57:27.927Z,99.99
2016-09-06T07:58:27.916Z,99.99
2016-09-06T07:59:27.909Z,99.99
2016-09-06T08:00:27.897Z,99.99
2016-09-06T08:01:27.896Z,99.99
2016-09-06T08:02:27.885Z,99.99
2016-09-06T08:03:27.874Z,99.99
2016-09-06T08:04:27.866Z,99.99
2016-09-06T08:05:27.858Z,99.99
2016-09-06T08:06:27.853Z,99.99
2016-09-06T08:07:27.844Z,99.99
2016-09-06T08:08:28.148Z,99.99
2016-09-06T08:09:27.825Z,99.99
2016-09-06T08:10:27.831Z,99.99
2016-09-06T08:11:27.809Z,99.99
2016-09-06T08:12:27.806Z,99.99
2016-09-06T08:13:28.006Z,99.99
2016-09-06T08:14:27.788Z,99.99
2016-09-06T08:15:27.814Z,99.99
2016-09-06T08:16:27.779Z,99.49
2016-09-06T08:17:27.764Z,99.01
2016-09-06T08:18:27.759Z,99.88
2016-09-06T08:19:27.752Z,99.98
2016-09-06T08:20:27.738Z,99.78
2016-09-06T08:21:27.730Z,99.06
2016-09-06T08:22:27.722Z,99.44
2016-09-06T08:23:27.713Z,98.1
2016-09-06T08:24:27.707Z,96.99
2016-09-06T08:25:27.704Z,96.8
2016-09-06T08:26:27.694Z,96.51
2016-09-06T08:27:27.686Z,96.42
2016-09-06T08:28:27.682Z,96.37
2016-09-06T08:29:27.669Z,96.17
2016-09-06T08:30:27.663Z,96.08
2016-09-06T08:31:27.969Z,94.73
2016-09-06T08:32:27.960Z,92.61
2016-09-06T08:33:27.954Z,92.22
2016-09-06T08:34:27.631Z,92.37
2016-09-06T08:35:27.936Z,92.85
2016-09-06T08:36:27.619Z,92.27
2016-09-06T08:37:27.612Z,92.18
2016-09-06T08:38:27.923Z,91.6
2016-09-06T08:39:27.916Z,91.12
2016-09-06T08:40:27.593Z,90.83
2016-09-06T08:41:27.587Z,91.02
2016-09-06T08:42:27.577Z,89.77
2016-09-06T08:43:27.566Z,91.02
2016-09-06T08:44:27.557Z,91.31
2016-09-06T08:45:27.864Z,91.89
2016-09-06T08:46:27.544Z,91.21
2016-09-06T08:47:27.537Z,90.78
2016-09-06T08:48:27.533Z,91.5
2016-09-06T08:49:27.529Z,92.85
2016-09-06T08:50:27.521Z,92.66
2016-09-06T08:51:27.505Z,92.18
2016-09-06T08:52:27.502Z,92.27
2016-09-06T08:53:27.505Z,92.18
2016-09-06T08:54:27.804Z,91.69
2016-09-06T08:55:27.479Z,91.69
2016-09-06T08:56:27.473Z,91.5
2016-09-06T08:57:27.463Z,91.69
2016-09-06T08:58:27.458Z,91.89
2016-09-06T08:59:27.773Z,91.69
2016-09-06T09:00:27.446Z,91.31
2016-09-06T09:01:27.440Z,91.69
2016-09-06T09:02:27.437Z,91.41
2016-09-06T09:03:27.424Z,91.6
2016-09-06T09:04:27.735Z,91.79
2016-09-06T09:05:27.412Z,91.5
2016-09-06T09:06:27.405Z,92.08
2016-09-06T09:07:27.713Z,91.69
2016-09-06T09:08:27.398Z,92.56
2016-09-06T09:09:27.386Z,93.04
2016-09-06T09:10:27.380Z,92.47
2016-09-06T09:11:27.685Z,91.6
2016-09-06T09:12:27.363Z,89.58
2016-09-06T09:13:27.357Z,90.16
2016-09-06T09:14:27.350Z,90.06
2016-09-06T09:15:27.344Z,90.34
2016-09-06T09:16:27.338Z,89.39
2016-09-06T09:17:27.339Z,89.53
2016-09-06T09:18:27.328Z,89.14
2016-09-06T09:19:27.327Z,86.92
2016-09-06T09:20:27.316Z,86.73
2016-09-06T09:21:27.307Z,85.38
2016-09-06T09:22:27.304Z,85.38
2016-09-06T09:23:27.293Z,84.52
2016-09-06T09:24:27.288Z,83.74
2016-09-06T09:25:27.281Z,84.42
2016-09-06T09:26:27.279Z,84.03
2016-09-06T09:27:27.580Z,84.03
2016-09-06T09:28:27.259Z,82.34
2016-09-06T09:29:27.255Z,83.78
2016-09-06T09:30:27.247Z,84.46
2016-09-06T09:31:27.242Z,83.88
2016-09-06T09:32:27.246Z,84.46
2016-09-06T09:33:27.230Z,84.84
2016-09-06T09:34:27.224Z,84.36
2016-09-06T09:35:27.214Z,85.03
2016-09-06T09:36:27.211Z,84.46
2016-09-06T09:37:27.203Z,82.43
2016-09-06T09:38:27.221Z,83.5
2016-09-06T09:39:27.190Z,83.59
2016-09-06T09:40:27.499Z,82.34
2016-09-06T09:41:27.177Z,82.62
2016-09-06T09:42:27.174Z,82.05
2016-09-06T09:43:27.168Z,82.14
2016-09-06T09:44:27.160Z,83.78
2016-09-06T09:45:27.154Z,81.57
2016-09-06T09:46:27.147Z,81.09
2016-09-06T09:47:27.141Z,81.18
2016-09-06T09:48:27.134Z,82.72
2016-09-06T09:49:27.438Z,82.92
2016-09-06T09:50:27.122Z,81.57
2016-09-06T09:51:27.113Z,82.14
2016-09-06T09:52:27.116Z,83.2
2016-09-06T09:53:27.103Z,83.5
2016-09-06T09:54:27.417Z,81.66
2016-09-06T09:55:27.101Z,82.48
2016-09-06T09:56:27.086Z,80.26
2016-09-06T09:57:27.084Z,81.6
2016-09-06T09:58:27.388Z,82.76
2016-09-06T09:59:27.063Z,81.41
2016-09-06T10:00:27.061Z,79.97
2016-09-06T10:01:27.051Z,80.45
2016-09-06T10:02:27.047Z,80.93
2016-09-06T10:03:27.350Z,79.77
2016-09-06T10:04:27.032Z,78.66
2016-09-06T10:05:27.026Z,78.46
2016-09-06T10:06:27.018Z,80.39
2016-09-06T10:07:27.328Z,79.14
2016-09-06T10:08:27.018Z,78.94
2016-09-06T10:09:27.313Z,77.69
2016-09-06T10:10:26.999Z,79.52
2016-09-06T10:11:26.989Z,79.62
2016-09-06T10:12:26.984Z,79.81
2016-09-06T10:13:27.420Z,79.14
2016-09-06T10:14:27.293Z,78.75
2016-09-06T10:15:26.972Z,77.3
2016-09-06T10:16:27.275Z,77.05
2016-09-06T10:17:26.950Z,78.41
2016-09-06T10:18:26.946Z,77.83
2016-09-06T10:19:26.949Z,75.41
2016-09-06T10:20:27.250Z,74.73
2016-09-06T10:21:27.245Z,75.12
2016-09-06T10:22:27.239Z,75.41
2016-09-06T10:23:26.917Z,75.79
2016-09-06T10:24:26.913Z,76.51
2016-09-06T10:25:26.908Z,76.86
2016-09-06T10:26:26.900Z,76.47
2016-09-06T10:27:27.213Z,75.51
2016-09-06T10:28:26.893Z,75.89
2016-09-06T10:29:26.886Z,75.31
2016-09-06T10:30:26.881Z,76.9
2016-09-06T10:31:26.879Z,74.93
2016-09-06T10:32:26.867Z,74.35
2016-09-06T10:33:27.182Z,73.8
2016-09-06T10:34:27.167Z,74.58
2016-09-06T10:35:26.852Z,73.42
2016-09-06T10:36:26.854Z,73.8
2016-09-06T10:37:26.849Z,73.03
2016-09-06T10:38:26.841Z,74.1
2016-09-06T10:39:26.829Z,73.22
2016-09-06T10:40:26.831Z,75.54
2016-09-06T10:41:26.819Z,74.48
2016-09-06T10:42:26.813Z,71.58
2016-09-06T10:43:26.813Z,72.16
2016-09-06T10:44:26.801Z,72.36
2016-09-06T10:45:27.112Z,73.74
2016-09-06T10:46:26.792Z,71.81
2016-09-06T10:47:26.787Z,70.26
2016-09-06T10:48:26.781Z,71.42
2016-09-06T10:49:26.778Z,71.91
2016-09-06T10:50:27.084Z,71.81
2016-09-06T10:51:26.769Z,69.68
2016-09-06T10:52:26.763Z,68.56
2016-09-06T10:53:27.070Z,67.59
2016-09-06T10:54:26.756Z,68.66
2016-09-06T10:55:26.746Z,69.92
2016-09-06T10:56:26.745Z,69.24
2016-09-06T10:57:27.050Z,68.88
2016-09-06T10:58:26.730Z,67.91
2016-09-06T10:59:26.723Z,65.88
2016-09-06T11:00:26.722Z,66.56
2016-09-06T11:01:26.719Z,68.69
2016-09-06T11:02:26.712Z,68.4
2016-09-06T11:03:27.017Z,69.95
2016-09-06T11:04:26.702Z,68.69
2016-09-06T11:05:26.694Z,69.66
2016-09-06T11:06:26.692Z,68.4
2016-09-06T11:07:26.688Z,68.88
2016-09-06T11:08:26.694Z,64.75
2016-09-06T11:09:26.675Z,64.98
2016-09-06T11:10:26.674Z,63.53
2016-09-06T11:11:26.983Z,60.94
2016-09-06T11:12:26.666Z,60.39
2016-09-06T11:13:26.665Z,61.46
2016-09-06T11:14:26.659Z,61.68
2016-09-06T11:15:26.658Z,60.06
2016-09-06T11:16:26.653Z,55.63
2016-09-06T11:17:26.651Z,54.85
2016-09-06T11:18:26.649Z,55.85
2016-09-06T11:19:26.648Z,54.58
2016-09-06T11:20:26.654Z,54.52
2016-09-06T11:21:26.649Z,54.03
2016-09-06T11:22:26.643Z,53.47
2016-09-06T11:23:26.649Z,53.57
2016-09-06T11:24:26.953Z,55.74
2016-09-06T11:25:26.645Z,51.87
2016-09-06T11:26:26.640Z,51.7
2016-09-06T11:27:26.642Z,51.14
2016-09-06T11:28:26.951Z,50.65
2016-09-06T11:29:26.643Z,52.34
2016-09-06T11:30:26.957Z,51.07
2016-09-06T11:31:26.645Z,49.73
2016-09-06T11:32:26.649Z,47.12
2016-09-06T11:33:26.649Z,46.63
2016-09-06T11:34:26.649Z,47.71
2016-09-06T11:35:26.651Z,46.04
2016-09-06T11:36:26.969Z,45.68
2016-09-06T11:37:26.654Z,46.36
2016-09-06T11:38:26.662Z,44.63
2016-09-06T11:39:26.656Z,44.04
2016-09-06T11:40:26.659Z,43.95
2016-09-06T11:41:26.662Z,45.21
2016-09-06T11:42:26.671Z,46.99
2016-09-06T11:43:26.667Z,42.42
2016-09-06T11:44:26.669Z,42.42
2016-09-06T11:45:26.670Z,41.15
2016-09-06T11:46:26.987Z,41.54
2016-09-06T11:47:26.676Z,40.47
2016-09-06T11:48:26.684Z,41.54
2016-09-06T11:49:26.993Z,43.69
2016-09-06T11:50:26.686Z,42.35
2016-09-06T11:51:26.693Z,40.58
2016-09-06T11:52:26.692Z,38.92
2016-09-06T11:53:26.693Z,41.66
2016-09-06T11:54:26.699Z,41.39
2016-09-06T11:55:27.014Z,40.11
2016-09-06T11:56:26.706Z,41.5
2016-09-06T11:57:26.712Z,40.63
2016-09-06T11:58:26.713Z,39.54
2016-09-06T11:59:26.716Z,40.31
2016-09-06T12:00:26.729Z,39.14
2016-09-06T12:01:26.723Z,39.14
2016-09-06T12:02:27.040Z,39.35
2016-09-06T12:03:26.728Z,39.54
2016-09-06T12:04:26.730Z,40.31
2016-09-06T12:05:26.737Z,39.33
2016-09-06T12:06:26.737Z,39.74
2016-09-06T12:07:27.085Z,39.15
2016-09-06T12:08:27.070Z,37.31
2016-09-06T12:09:26.750Z,37.31
2016-09-06T12:10:26.751Z,38.1
2016-09-06T12:11:26.754Z,38.7
2016-09-06T12:12:26.758Z,36.27
2016-09-06T12:13:27.075Z,36.18
2016-09-06T12:14:26.776Z,37.15
2016-09-06T12:15:27.119Z,37.46
2016-09-06T12:16:26.772Z,36.09
2016-09-06T12:17:27.085Z,34.83
2016-09-06T12:18:26.778Z,34.85
2016-09-06T12:19:26.780Z,35.34
2016-09-06T12:20:26.787Z,37.7
2016-09-06T12:21:26.788Z,35.54
2016-09-06T12:22:27.107Z,35.44
2016-09-06T12:23:26.796Z,36.05
2016-09-06T12:24:26.807Z,34.87
2016-09-06T12:25:27.117Z,33.39
2016-09-06T12:26:26.813Z,33.7
2016-09-06T12:27:26.813Z,34.59
2016-09-06T12:28:26.820Z,31.76
2016-09-06T12:29:26.822Z,32.82
2016-09-06T12:30:26.827Z,31.94
2016-09-06T12:31:26.832Z,33.91
2016-09-06T12:32:26.836Z,32.72
2016-09-06T12:33:26.847Z,33.13
2016-09-06T12:34:26.843Z,31.76
2016-09-06T12:35:26.851Z,33.72
2016-09-06T12:36:26.855Z,31.76
2016-09-06T12:37:27.173Z,31.66
2016-09-06T12:38:26.861Z,34.3
2016-09-06T12:39:27.183Z,31.36
2016-09-06T12:40:26.874Z,32.54
2016-09-06T12:41:26.877Z,32.45
2016-09-06T12:42:27.198Z,32.64
2016-09-06T12:43:26.910Z,32.15
2016-09-06T12:44:26.932Z,32.17
2016-09-06T12:45:26.899Z,30.88
2016-09-06T12:46:26.903Z,29.8
2016-09-06T12:47:26.927Z,30.41
2016-09-06T12:48:26.914Z,29.43
2016-09-06T12:49:26.919Z,29.23
2016-09-06T12:50:26.924Z,29.23
2016-09-06T12:51:26.928Z,30.51
2016-09-06T12:52:26.937Z,31.28
2016-09-06T12:53:26.945Z,29.33